createdAt,value
2018-01-15T00:00:05.635Z,67.30
2018-01-15T00:01:07.158Z,67.20
2018-01-15T00:02:08.444Z,67.20
2018-01-15T00:03:09.689Z,67.10
2018-01-15T00:04:10.931Z,67.10
2018-01-15T00:05:12.166Z,67.10
2018-01-15T00:06:13.423Z,67.10
2018-01-15T00:07:14.672Z,67.20
2018-01-15T00:08:15.913Z,67.30
2018-01-15T00:09:17.161Z,67.00
2018-01-15T00:10:18.394Z,66.80
2018-01-15T00:11:19.935Z,67.00
2018-01-15T00:12:21.187Z,67.30
2018-01-15T00:13:23.170Z,66.70
2018-01-15T00:14:24.426Z,66.70
2018-01-15T00:15:25.688Z,66.80
2018-01-15T00:16:26.948Z,66.80
2018-01-15T00:17:28.955Z,66.80
2018-01-15T00:18:30.245Z,66.80
2018-01-15T00:19:31.468Z,66.60
2018-01-15T00:20:33.449Z,66.40
2018-01-15T00:21:35.049Z,66.40
2018-01-15T00:22:36.300Z,66.50
2018-01-15T00:23:38.301Z,66.70
2018-01-15T00:24:39.554Z,66.60
2018-01-15T00:25:40.812Z,66.80
2018-01-15T00:26:43.109Z,67.40
2018-01-15T00:27:44.361Z,66.70
2018-01-15T00:28:45.618Z,66.70
2018-01-15T00:29:47.595Z,67.00
2018-01-15T00:30:48.837Z,66.90
2018-01-15T00:31:51.189Z,67.10
2018-01-15T00:32:52.430Z,67.00
2018-01-15T00:33:54.435Z,66.90
2018-01-15T00:34:55.697Z,66.90
2018-01-15T00:35:56.966Z,66.80
2018-01-15T00:36:59.304Z,66.80
2018-01-15T00:38:00.568Z,66.80
2018-01-15T00:39:01.841Z,66.90
2018-01-15T00:40:03.090Z,66.90
2018-01-15T00:41:04.339Z,67.20
2018-01-15T00:42:05.899Z,66.70
2018-01-15T00:43:07.886Z,66.50
2018-01-15T00:44:09.171Z,66.50
2018-01-15T00:45:10.411Z,66.40
2018-01-15T00:46:11.657Z,66.50
2018-01-15T00:47:13.649Z,66.60
2018-01-15T00:48:14.884Z,66.60
2018-01-15T00:49:16.114Z,66.60
2018-01-15T00:50:17.363Z,66.30
2018-01-15T00:51:18.614Z,66.10
2018-01-15T00:52:20.195Z,65.90
2018-01-15T00:53:22.201Z,65.60
2018-01-15T00:54:23.498Z,65.50
2018-01-15T00:55:24.731Z,65.50
2018-01-15T00:56:26.719Z,65.90
2018-01-15T00:57:28.274Z,65.80
2018-01-15T00:58:29.540Z,66.00
2018-01-15T00:59:30.790Z,66.20
2018-01-15T01:00:32.848Z,66.20
2018-01-15T01:01:34.822Z,66.10
2018-01-15T01:02:36.339Z,66.00
2018-01-15T01:03:38.373Z,65.80
2018-01-15T01:04:39.618Z,65.70
2018-01-15T01:05:41.614Z,66.50
2018-01-15T01:06:42.851Z,66.20
2018-01-15T01:07:44.452Z,66.00
2018-01-15T01:08:46.427Z,66.30
2018-01-15T01:09:47.677Z,66.20
2018-01-15T01:10:48.922Z,65.70
2018-01-15T01:11:50.202Z,65.60
2018-01-15T01:12:51.469Z,65.50
2018-01-15T01:13:52.724Z,66.10
2018-01-15T01:14:53.967Z,65.40
2018-01-15T01:15:55.224Z,65.50
2018-01-15T01:16:56.488Z,65.50
2018-01-15T01:17:58.514Z,64.70
2018-01-15T01:18:59.790Z,64.70
2018-01-15T01:20:01.788Z,64.90
2018-01-15T01:21:03.034Z,64.80
2018-01-15T01:22:04.269Z,65.30
2018-01-15T01:23:05.537Z,65.30
2018-01-15T01:24:07.524Z,65.70
2018-01-15T01:25:08.789Z,65.30
2018-01-15T01:26:10.055Z,65.40
2018-01-15T01:27:11.299Z,65.30
2018-01-15T01:28:13.643Z,64.90
2018-01-15T01:29:14.895Z,64.80
2018-01-15T01:30:16.883Z,64.70
2018-01-15T01:31:18.124Z,64.60
2018-01-15T01:32:19.373Z,64.50
2018-01-15T01:33:20.889Z,64.30
2018-01-15T01:34:22.142Z,64.20
2018-01-15T01:35:23.397Z,63.90
2018-01-15T01:36:24.675Z,63.90
2018-01-15T01:37:26.667Z,64.20
2018-01-15T01:38:28.260Z,64.20
2018-01-15T01:39:30.286Z,64.30
2018-01-15T01:40:31.548Z,64.30
2018-01-15T01:41:33.550Z,64.40
2018-01-15T01:42:34.800Z,64.40
2018-01-15T01:43:36.375Z,64.80
2018-01-15T01:44:38.508Z,64.90
2018-01-15T01:45:40.530Z,65.50
2018-01-15T01:46:41.787Z,65.40
2018-01-15T01:47:43.062Z,65.40
2018-01-15T01:48:45.422Z,65.90
2018-01-15T01:49:47.424Z,65.90
2018-01-15T01:50:48.665Z,65.90
2018-01-15T01:51:49.929Z,65.80
2018-01-15T01:52:51.188Z,66.00
2018-01-15T01:53:53.531Z,66.00
2018-01-15T01:54:54.835Z,66.00
2018-01-15T01:55:56.078Z,66.00
2018-01-15T01:56:57.327Z,65.80
2018-01-15T01:57:58.564Z,65.40
2018-01-15T01:59:00.118Z,65.20
2018-01-15T02:00:01.370Z,65.10
2018-01-15T02:01:03.465Z,65.10
2018-01-15T02:02:04.707Z,65.10
2018-01-15T02:03:12.782Z,65.10
2018-01-15T02:04:14.329Z,65.10
2018-01-15T02:05:15.593Z,64.50
2018-01-15T02:06:16.843Z,64.60
2018-01-15T02:07:18.104Z,65.00
2018-01-15T02:08:20.093Z,64.80
2018-01-15T02:09:21.680Z,64.80
2018-01-15T02:10:22.912Z,64.70
2018-01-15T02:11:24.179Z,64.40
2018-01-15T02:12:25.436Z,64.30
2018-01-15T02:13:26.701Z,64.20
2018-01-15T02:14:28.269Z,64.50
2018-01-15T02:15:29.520Z,64.80
2018-01-15T02:16:31.506Z,64.70
2018-01-15T02:17:32.765Z,64.60
2018-01-15T02:18:34.032Z,64.20
2018-01-15T02:19:36.332Z,63.80
2018-01-15T02:20:37.580Z,63.80
2018-01-15T02:21:38.843Z,64.40
2018-01-15T02:22:40.100Z,64.40
2018-01-15T02:23:41.371Z,64.60
2018-01-15T02:24:42.964Z,64.50
2018-01-15T02:25:44.244Z,64.20
2018-01-15T02:26:45.544Z,64.80
2018-01-15T02:27:46.804Z,63.90
2018-01-15T02:28:48.056Z,63.80
2018-01-15T02:29:49.620Z,63.80
2018-01-15T02:30:50.872Z,63.80
2018-01-15T02:31:52.121Z,63.80
2018-01-15T02:32:54.157Z,63.80
2018-01-15T02:33:56.196Z,63.80
2018-01-15T02:34:57.782Z,63.80
2018-01-15T02:35:59.777Z,63.80
2018-01-15T02:37:01.018Z,63.80
2018-01-15T02:38:02.262Z,63.80
2018-01-15T02:39:04.292Z,63.90
2018-01-15T02:40:05.895Z,63.80
2018-01-15T02:41:07.961Z,63.90
2018-01-15T02:42:09.978Z,63.90
2018-01-15T02:43:11.228Z,63.70
2018-01-15T02:44:12.496Z,63.80
2018-01-15T02:45:14.820Z,63.90
2018-01-15T02:46:16.091Z,63.80
2018-01-15T02:47:18.085Z,63.90
2018-01-15T02:48:19.313Z,63.80
2018-01-15T02:49:20.574Z,63.40
2018-01-15T02:50:22.852Z,63.20
2018-01-15T02:51:24.096Z,63.90
2018-01-15T02:52:26.148Z,63.30
2018-01-15T02:53:28.163Z,63.30
2018-01-15T02:54:29.406Z,63.20
2018-01-15T02:55:30.976Z,63.00
2018-01-15T02:56:32.238Z,63.00
2018-01-15T02:57:33.528Z,63.30
2018-01-15T02:58:34.786Z,63.50
2018-01-15T02:59:36.802Z,64.60
2018-01-15T03:00:38.323Z,63.90
2018-01-15T03:01:39.590Z,63.90
2018-01-15T03:02:40.848Z,63.90
2018-01-15T03:03:42.101Z,63.80
2018-01-15T03:04:44.090Z,63.60
2018-01-15T03:05:45.623Z,63.50
2018-01-15T03:06:46.876Z,63.70
2018-01-15T03:07:48.144Z,63.20
2018-01-15T03:08:49.384Z,63.30
2018-01-15T03:09:50.654Z,63.70
2018-01-15T03:10:52.214Z,63.80
2018-01-15T03:11:53.454Z,63.80
2018-01-15T03:12:54.708Z,63.80
2018-01-15T03:13:55.960Z,63.40
2018-01-15T03:14:57.220Z,63.00
2018-01-15T03:15:59.508Z,63.80
2018-01-15T03:17:00.766Z,63.80
2018-01-15T03:18:02.025Z,63.80
2018-01-15T03:19:03.306Z,63.70
2018-01-15T03:20:04.588Z,63.70
2018-01-15T03:21:06.115Z,63.60
2018-01-15T03:22:07.364Z,63.50
2018-01-15T03:23:08.624Z,63.60
2018-01-15T03:24:10.614Z,64.20
2018-01-15T03:25:11.868Z,64.10
2018-01-15T03:26:13.432Z,64.20
2018-01-15T03:27:14.680Z,64.10
2018-01-15T03:28:15.934Z,64.90
2018-01-15T03:29:17.912Z,63.60
2018-01-15T03:30:19.190Z,63.60
2018-01-15T03:31:20.460Z,63.90
2018-01-15T03:32:22.434Z,64.20
2018-01-15T03:33:23.687Z,64.10
2018-01-15T03:34:24.948Z,63.90
2018-01-15T03:35:26.206Z,63.70
2018-01-15T03:36:28.480Z,63.70
2018-01-15T03:37:30.452Z,63.70
2018-01-15T03:38:31.696Z,63.70
2018-01-15T03:39:32.976Z,63.70
2018-01-15T03:40:34.232Z,63.70
2018-01-15T03:41:36.484Z,63.70
2018-01-15T03:42:38.512Z,63.80
2018-01-15T03:43:39.763Z,63.70
2018-01-15T03:44:41.022Z,63.70
2018-01-15T03:45:43.010Z,63.70
2018-01-15T03:46:44.596Z,63.70
2018-01-15T03:47:45.819Z,63.60
2018-01-15T03:48:47.060Z,64.40
2018-01-15T03:49:48.320Z,63.60
2018-01-15T03:50:50.300Z,63.80
2018-01-15T03:51:51.544Z,63.80
2018-01-15T03:52:52.783Z,64.00
2018-01-15T03:53:54.020Z,64.20
2018-01-15T03:54:55.266Z,64.10
2018-01-15T03:55:56.502Z,64.30
2018-01-15T03:56:58.089Z,64.50
2018-01-15T03:58:00.106Z,64.80
2018-01-15T03:59:01.362Z,64.60
2018-01-15T04:00:02.620Z,64.60
2018-01-15T04:01:04.598Z,64.20
2018-01-15T04:02:06.192Z,64.10
2018-01-15T04:03:07.445Z,64.00
2018-01-15T04:04:09.450Z,63.70
2018-01-15T04:05:10.734Z,63.60
2018-01-15T04:06:12.705Z,63.60
2018-01-15T04:07:13.963Z,63.60
2018-01-15T04:08:15.209Z,63.60
2018-01-15T04:09:17.213Z,63.60
2018-01-15T04:10:18.493Z,63.60
2018-01-15T04:11:20.483Z,63.60
2018-01-15T04:12:22.028Z,63.60
2018-01-15T04:13:24.025Z,63.60
2018-01-15T04:14:25.277Z,63.60
2018-01-15T04:15:26.523Z,63.70
2018-01-15T04:16:27.807Z,63.70
2018-01-15T04:17:29.071Z,63.70
2018-01-15T04:18:30.328Z,63.60
2018-01-15T04:19:31.583Z,63.60
2018-01-15T04:20:32.879Z,63.60
2018-01-15T04:21:34.130Z,64.60
2018-01-15T04:22:35.663Z,64.20
2018-01-15T04:23:36.914Z,64.20
2018-01-15T04:24:38.156Z,64.30
2018-01-15T04:25:39.413Z,64.40
2018-01-15T04:26:41.410Z,64.90
2018-01-15T04:27:43.006Z,64.70
2018-01-15T04:28:44.262Z,65.10
2018-01-15T04:29:49.466Z,65.70
2018-01-15T04:30:50.751Z,65.60
2018-01-15T04:31:51.997Z,65.90
2018-01-15T04:32:53.542Z,65.70
2018-01-15T04:33:54.812Z,65.60
2018-01-15T04:34:56.062Z,65.60
2018-01-15T04:35:58.084Z,65.30
2018-01-15T04:36:59.348Z,65.20
2018-01-15T04:38:01.370Z,65.20
2018-01-15T04:39:03.414Z,65.20
2018-01-15T04:40:04.681Z,65.20
2018-01-15T04:41:06.167Z,65.20
2018-01-15T04:42:07.448Z,65.30
2018-01-15T04:43:08.697Z,65.30
2018-01-15T04:44:09.935Z,65.30
2018-01-15T04:45:11.193Z,65.30
2018-01-15T04:46:12.447Z,65.20
2018-01-15T04:47:13.684Z,65.00
2018-01-15T04:48:15.211Z,64.90
2018-01-15T04:49:16.463Z,64.90
2018-01-15T04:50:17.779Z,64.90
2018-01-15T04:51:19.028Z,64.80
2018-01-15T04:52:20.269Z,64.80
2018-01-15T04:53:21.848Z,64.80
2018-01-15T04:54:23.129Z,64.60
2018-01-15T04:55:24.383Z,64.50
2018-01-15T04:56:25.639Z,64.50
2018-01-15T04:57:26.881Z,64.60
2018-01-15T04:58:28.409Z,64.50
2018-01-15T04:59:29.643Z,64.40
2018-01-15T05:00:30.893Z,64.50
2018-01-15T05:01:32.161Z,64.50
2018-01-15T05:02:34.195Z,64.50
2018-01-15T05:03:35.763Z,64.50
2018-01-15T05:04:37.750Z,64.70
2018-01-15T05:05:39.004Z,64.60
2018-01-15T05:06:40.247Z,64.80
2018-01-15T05:07:41.498Z,64.70
2018-01-15T05:08:43.031Z,64.60
2018-01-15T05:09:44.289Z,64.50
2018-01-15T05:10:46.259Z,65.00
2018-01-15T05:11:47.558Z,65.00
2018-01-15T05:12:48.785Z,65.10
2018-01-15T05:13:50.070Z,65.40
2018-01-15T05:14:51.310Z,65.60
2018-01-15T05:15:52.561Z,65.70
2018-01-15T05:16:53.849Z,65.70
2018-01-15T05:17:55.107Z,65.60
2018-01-15T05:18:57.445Z,65.60
2018-01-15T05:19:59.435Z,66.10
2018-01-15T05:21:00.698Z,65.40
2018-01-15T05:22:01.939Z,65.30
2018-01-15T05:23:03.199Z,65.30
2018-01-15T05:24:04.861Z,65.20
2018-01-15T05:25:06.875Z,65.00
2018-01-15T05:26:08.125Z,64.90
2018-01-15T05:27:09.377Z,65.00
2018-01-15T05:28:11.358Z,65.10
2018-01-15T05:29:12.627Z,65.00
2018-01-15T05:30:13.863Z,65.00
2018-01-15T05:31:15.157Z,64.90
2018-01-15T05:32:16.397Z,64.80
2018-01-15T05:33:17.650Z,64.90
2018-01-15T05:34:18.924Z,64.90
2018-01-15T05:35:20.196Z,64.80
2018-01-15T05:36:22.197Z,64.90
2018-01-15T05:37:23.441Z,64.80
2018-01-15T05:38:24.674Z,64.90
2018-01-15T05:39:25.953Z,64.90
2018-01-15T05:40:27.951Z,64.60
2018-01-15T05:41:29.210Z,64.50
2018-01-15T05:42:30.449Z,64.50
2018-01-15T05:43:31.701Z,64.60
2018-01-15T05:44:33.979Z,64.80
2018-01-15T05:45:35.246Z,64.70
2018-01-15T05:46:36.490Z,64.60
2018-01-15T05:47:37.728Z,64.60
2018-01-15T05:48:38.973Z,64.60
2018-01-15T05:49:40.229Z,64.60
2018-01-15T05:50:41.461Z,64.60
2018-01-15T05:51:42.699Z,64.70
2018-01-15T05:52:43.980Z,64.60
2018-01-15T05:53:45.217Z,64.60
2018-01-15T05:54:46.499Z,64.60
2018-01-15T05:55:47.754Z,64.60
2018-01-15T05:56:49.753Z,64.70
2018-01-15T05:57:51.062Z,64.70
2018-01-15T05:58:52.312Z,64.70
2018-01-15T05:59:53.585Z,64.80
2018-01-15T06:00:54.867Z,65.60
2018-01-15T06:01:56.124Z,65.10
2018-01-15T06:02:57.396Z,65.10
2018-01-15T06:03:58.632Z,65.10
2018-01-15T06:04:59.910Z,65.20
2018-01-15T06:06:01.172Z,65.20
2018-01-15T06:07:02.422Z,65.10
2018-01-15T06:08:03.657Z,65.10
2018-01-15T06:09:04.906Z,65.30
2018-01-15T06:10:06.168Z,65.20
2018-01-15T06:11:08.179Z,64.80
2018-01-15T06:12:09.466Z,64.80
2018-01-15T06:13:11.433Z,65.70
2018-01-15T06:14:12.673Z,65.00
2018-01-15T06:15:14.270Z,65.00
2018-01-15T06:16:15.504Z,64.90
2018-01-15T06:17:16.739Z,65.00
2018-01-15T06:18:17.982Z,65.10
2018-01-15T06:19:19.234Z,65.50
2018-01-15T06:20:21.508Z,64.90
2018-01-15T06:21:22.766Z,64.90
2018-01-15T06:22:24.000Z,64.80
2018-01-15T06:23:25.249Z,64.80
2018-01-15T06:24:26.502Z,65.00
2018-01-15T06:25:27.762Z,64.80
2018-01-15T06:26:29.738Z,64.40
2018-01-15T06:27:30.973Z,64.40
2018-01-15T06:28:32.230Z,64.50
2018-01-15T06:29:33.464Z,64.60
2018-01-15T06:30:34.986Z,65.00
2018-01-15T06:31:36.232Z,64.80
2018-01-15T06:32:37.470Z,64.60
2018-01-15T06:33:38.730Z,64.60
2018-01-15T06:34:39.993Z,64.30
2018-01-15T06:35:41.552Z,64.30
2018-01-15T06:36:43.524Z,64.30
2018-01-15T06:37:44.740Z,64.20
2018-01-15T06:38:46.738Z,64.60
2018-01-15T06:39:47.972Z,64.50
2018-01-15T06:40:49.508Z,64.50
2018-01-15T06:41:50.780Z,64.60
2018-01-15T06:42:52.044Z,64.60
2018-01-15T06:43:53.276Z,64.50
2018-01-15T06:44:55.269Z,64.80
2018-01-15T06:45:56.860Z,64.80
2018-01-15T06:46:58.849Z,65.10
2018-01-15T06:48:00.086Z,65.10
2018-01-15T06:49:01.336Z,65.00
2018-01-15T06:50:02.608Z,65.20
2018-01-15T06:51:04.874Z,65.70
2018-01-15T06:52:06.861Z,65.30
2018-01-15T06:53:08.118Z,65.10
2018-01-15T06:54:09.372Z,65.00
2018-01-15T06:55:10.625Z,65.20
2018-01-15T06:56:11.900Z,64.70
2018-01-15T06:57:13.136Z,65.30
2018-01-15T06:58:14.392Z,64.90
2018-01-15T06:59:15.661Z,64.90
2018-01-15T07:00:16.944Z,64.80
2018-01-15T07:01:18.544Z,65.10
2018-01-15T07:02:19.856Z,65.00
2018-01-15T07:03:21.172Z,65.30
2018-01-15T07:04:22.418Z,65.40
2018-01-15T07:05:23.684Z,65.60
2018-01-15T07:06:25.227Z,65.50
2018-01-15T07:07:26.489Z,65.40
2018-01-15T07:08:28.484Z,65.70
2018-01-15T07:09:29.744Z,65.60
2018-01-15T07:10:30.984Z,65.00
2018-01-15T07:11:32.544Z,65.00
2018-01-15T07:12:34.532Z,65.20
2018-01-15T07:13:35.788Z,65.00
2018-01-15T07:14:37.037Z,65.20
2018-01-15T07:15:38.356Z,65.30
2018-01-15T07:16:39.604Z,65.20
2018-01-15T07:17:40.844Z,65.30
2018-01-15T07:18:42.074Z,65.30
2018-01-15T07:19:43.322Z,65.30
2018-01-15T07:20:44.612Z,64.90
2018-01-15T07:21:46.632Z,65.50
2018-01-15T07:22:48.636Z,65.50
2018-01-15T07:23:49.865Z,65.50
2018-01-15T07:24:51.165Z,65.70
2018-01-15T07:25:53.196Z,66.00
2018-01-15T07:26:54.485Z,65.90
2018-01-15T07:27:55.737Z,65.90
2018-01-15T07:28:57.067Z,65.90
2018-01-15T07:29:58.334Z,66.10
2018-01-15T07:30:59.592Z,66.10
2018-01-15T07:32:01.581Z,66.20
2018-01-15T07:33:02.833Z,66.10
2018-01-15T07:34:04.085Z,66.40
2018-01-15T07:35:05.339Z,66.40
2018-01-15T07:36:06.596Z,66.50
2018-01-15T07:37:08.588Z,66.60
2018-01-15T07:38:16.909Z,66.60
2018-01-15T07:39:18.160Z,66.30
2018-01-15T07:40:19.426Z,66.30
2018-01-15T07:41:20.700Z,66.30
2018-01-15T07:42:21.970Z,66.30
2018-01-15T07:43:23.225Z,66.20
2018-01-15T07:44:25.209Z,66.30
2018-01-15T07:45:26.461Z,66.20
2018-01-15T07:46:27.729Z,66.50
2018-01-15T07:47:28.985Z,66.70
2018-01-15T07:48:31.005Z,67.00
2018-01-15T07:49:32.247Z,67.00
2018-01-15T07:50:33.490Z,67.40
2018-01-15T07:51:34.721Z,67.40
2018-01-15T07:52:35.981Z,67.00
2018-01-15T07:53:37.969Z,67.00
2018-01-15T07:54:39.221Z,66.90
2018-01-15T07:55:40.459Z,67.00
2018-01-15T07:56:41.705Z,67.10
2018-01-15T07:57:42.969Z,67.10
2018-01-15T07:58:44.221Z,66.60
2018-01-15T07:59:45.491Z,66.70
2018-01-15T08:00:46.757Z,66.90
2018-01-15T08:01:48.005Z,66.80
2018-01-15T08:02:50.017Z,66.60
2018-01-15T08:03:51.341Z,66.50
2018-01-15T08:04:52.597Z,66.60
2018-01-15T08:05:53.864Z,66.80
2018-01-15T08:06:55.864Z,66.90
2018-01-15T08:07:57.121Z,66.80
2018-01-15T08:08:58.361Z,66.50
2018-01-15T08:09:59.593Z,66.30
2018-01-15T08:11:00.845Z,65.90
2018-01-15T08:12:02.089Z,66.10
2018-01-15T08:13:03.345Z,66.00
2018-01-15T08:14:04.597Z,66.10
2018-01-15T08:15:05.845Z,66.10
2018-01-15T08:16:07.155Z,66.20
2018-01-15T08:17:09.127Z,65.30
2018-01-15T08:18:10.393Z,65.30
2018-01-15T08:19:11.637Z,65.50
2018-01-15T08:20:12.889Z,65.50
2018-01-15T08:21:14.125Z,65.30
2018-01-15T08:22:16.115Z,65.60
2018-01-15T08:23:17.701Z,65.30
2018-01-15T08:24:18.939Z,65.40
2018-01-15T08:25:20.976Z,65.80
2018-01-15T08:26:22.211Z,65.80
2018-01-15T08:27:23.504Z,65.50
2018-01-15T08:28:25.639Z,65.50
2018-01-15T08:29:27.615Z,65.70
2018-01-15T08:30:28.877Z,65.70
2018-01-15T08:31:30.188Z,65.80
2018-01-15T08:32:32.137Z,66.20
2018-01-15T08:33:33.397Z,66.20
2018-01-15T08:34:34.645Z,66.30
2018-01-15T08:35:35.869Z,66.50
2018-01-15T08:36:37.143Z,66.80
2018-01-15T08:37:38.410Z,66.90
2018-01-15T08:38:40.407Z,66.60
2018-01-15T08:39:41.645Z,66.50
2018-01-15T08:40:42.885Z,66.70
2018-01-15T08:41:44.149Z,66.40
2018-01-15T08:42:45.393Z,66.50
2018-01-15T08:43:47.397Z,66.50
2018-01-15T08:44:48.657Z,66.40
2018-01-15T08:45:49.903Z,66.70
2018-01-15T08:46:51.147Z,66.60
2018-01-15T08:47:53.113Z,66.80
2018-01-15T08:48:55.115Z,66.60
2018-01-15T08:49:56.367Z,66.60
2018-01-15T08:50:57.602Z,66.80
2018-01-15T08:51:58.859Z,67.10
2018-01-15T08:53:00.853Z,67.00
2018-01-15T08:54:02.125Z,66.90
2018-01-15T08:55:03.372Z,66.70
2018-01-15T08:56:05.343Z,66.70
2018-01-15T08:57:07.349Z,66.80
2018-01-15T08:58:08.613Z,66.80
2018-01-15T08:59:09.879Z,67.10
2018-01-15T09:00:11.139Z,67.10
2018-01-15T09:01:12.392Z,66.80
2018-01-15T09:02:13.663Z,67.10
2018-01-15T09:03:15.673Z,66.90
2018-01-15T09:04:17.069Z,66.80
2018-01-15T09:05:19.063Z,66.90
2018-01-15T09:06:20.313Z,66.80
2018-01-15T09:07:21.563Z,66.80
2018-01-15T09:08:22.815Z,67.00
2018-01-15T09:09:25.135Z,66.90
2018-01-15T09:10:26.371Z,66.90
2018-01-15T09:11:27.625Z,66.80
2018-01-15T09:12:29.633Z,66.80
2018-01-15T09:13:30.913Z,66.70
2018-01-15T09:14:32.183Z,66.40
2018-01-15T09:15:34.161Z,66.40
2018-01-15T09:16:35.410Z,66.40
2018-01-15T09:17:36.650Z,66.30
2018-01-15T09:18:37.905Z,66.40
2018-01-15T09:19:39.167Z,66.40
2018-01-15T09:20:41.145Z,66.40
2018-01-15T09:21:42.407Z,66.30
2018-01-15T09:22:43.691Z,65.90
2018-01-15T09:23:44.919Z,66.00
2018-01-15T09:24:46.937Z,66.10
2018-01-15T09:25:48.218Z,66.10
2018-01-15T09:26:50.219Z,66.10
2018-01-15T09:27:51.493Z,66.00
2018-01-15T09:28:53.493Z,65.90
2018-01-15T09:29:54.753Z,66.50
2018-01-15T09:31:02.931Z,65.10
2018-01-15T09:32:04.173Z,65.10
2018-01-15T09:33:05.456Z,64.80
2018-01-15T09:34:07.477Z,64.30
2018-01-15T09:35:08.772Z,64.20
2018-01-15T09:36:10.030Z,64.50
2018-01-15T09:37:11.279Z,65.50
2018-01-15T09:38:12.520Z,65.50
2018-01-15T09:39:13.772Z,64.30
2018-01-15T09:40:15.285Z,63.90
2018-01-15T09:41:16.557Z,63.30
2018-01-15T09:42:17.829Z,63.30
2018-01-15T09:43:19.142Z,63.50
2018-01-15T09:44:20.355Z,62.50
2018-01-15T09:45:21.645Z,62.50
2018-01-15T09:46:22.897Z,63.40
2018-01-15T09:47:24.163Z,63.40
2018-01-15T09:48:25.445Z,63.80
2018-01-15T09:49:26.675Z,64.20
2018-01-15T09:50:27.957Z,64.30
2018-01-15T09:51:29.205Z,64.90
2018-01-15T09:52:30.477Z,65.30
2018-01-15T09:53:31.738Z,65.30
2018-01-15T09:54:32.988Z,65.70
2018-01-15T09:55:34.292Z,66.00
2018-01-15T09:56:35.535Z,66.20
2018-01-15T09:57:36.797Z,66.40
2018-01-15T09:58:38.045Z,66.40
2018-01-15T09:59:39.337Z,65.10
2018-01-15T10:00:40.860Z,64.90
2018-01-15T10:01:42.892Z,65.70
2018-01-15T10:02:44.141Z,65.70
2018-01-15T10:03:46.124Z,66.20
2018-01-15T10:04:47.433Z,66.20
2018-01-15T10:05:49.780Z,66.70
2018-01-15T10:06:51.044Z,66.70
2018-01-15T10:07:52.320Z,66.70
2018-01-15T10:08:53.553Z,66.80
2018-01-15T10:09:54.809Z,67.00
2018-01-15T10:10:56.368Z,67.00
2018-01-15T10:11:58.386Z,67.00
2018-01-15T10:12:59.641Z,66.90
2018-01-15T10:14:00.885Z,67.10
2018-01-15T10:15:02.144Z,66.60
2018-01-15T10:16:03.724Z,66.80
2018-01-15T10:17:04.980Z,66.80
2018-01-15T10:18:06.256Z,66.60
2018-01-15T10:19:08.244Z,66.50
2018-01-15T10:20:09.489Z,66.40
2018-01-15T10:21:11.056Z,66.20
2018-01-15T10:22:12.315Z,66.30
2018-01-15T10:23:14.305Z,66.20
2018-01-15T10:24:15.556Z,66.10
2018-01-15T10:25:16.792Z,65.90
2018-01-15T10:26:18.056Z,66.40
2018-01-15T10:27:19.325Z,65.30
2018-01-15T10:28:20.588Z,64.80
2018-01-15T10:29:21.856Z,64.70
2018-01-15T10:30:23.100Z,64.80
2018-01-15T10:31:25.108Z,64.90
2018-01-15T10:32:26.352Z,64.90
2018-01-15T10:33:27.612Z,64.10
2018-01-15T10:34:28.852Z,63.30
2018-01-15T10:35:30.104Z,62.80
2018-01-15T10:36:32.118Z,62.20
2018-01-15T10:37:33.397Z,62.20
2018-01-15T10:38:35.385Z,62.80
2018-01-15T10:39:36.636Z,62.70
2018-01-15T10:40:37.939Z,61.90
2018-01-15T10:41:39.346Z,61.70
2018-01-15T10:42:40.588Z,62.00
2018-01-15T10:43:42.606Z,61.40
2018-01-15T10:44:43.854Z,61.30
2018-01-15T10:45:45.100Z,61.60
2018-01-15T10:46:46.366Z,61.80
2018-01-15T10:47:47.620Z,62.40
2018-01-15T10:48:48.876Z,62.00
2018-01-15T10:49:50.110Z,62.60
2018-01-15T10:50:51.366Z,63.00
2018-01-15T10:51:52.934Z,62.80
2018-01-15T10:52:54.901Z,62.90
2018-01-15T10:53:56.972Z,63.30
2018-01-15T10:54:58.232Z,63.30
2018-01-15T10:55:59.480Z,63.70
2018-01-15T10:57:00.746Z,63.70
2018-01-15T10:58:02.760Z,63.80
2018-01-15T10:59:04.006Z,63.70
2018-01-15T11:00:05.278Z,63.00
2018-01-15T11:01:12.752Z,62.70
2018-01-15T11:02:15.036Z,63.60
2018-01-15T11:03:16.296Z,63.50
2018-01-15T11:04:17.540Z,63.90
2018-01-15T11:05:18.794Z,63.50
2018-01-15T11:06:20.049Z,62.70
2018-01-15T11:07:22.342Z,62.00
2018-01-15T11:08:23.600Z,61.80
2018-01-15T11:09:24.869Z,62.80
2018-01-15T11:10:26.132Z,62.00
2018-01-15T11:11:28.140Z,61.50
2018-01-15T11:12:29.416Z,61.30
2018-01-15T11:13:31.394Z,62.80
2018-01-15T11:14:32.652Z,62.80
2018-01-15T11:15:33.897Z,62.70
2018-01-15T11:16:35.141Z,62.80
2018-01-15T11:17:36.400Z,63.40
2018-01-15T11:18:38.392Z,63.10
2018-01-15T11:19:39.629Z,63.10
2018-01-15T11:20:40.892Z,62.40
2018-01-15T11:21:42.153Z,61.00
2018-01-15T11:22:43.418Z,60.70
2018-01-15T11:23:44.644Z,60.80
2018-01-15T11:24:45.900Z,61.00
2018-01-15T11:25:47.200Z,61.50
2018-01-15T11:26:49.184Z,61.40
2018-01-15T11:27:50.444Z,61.30
2018-01-15T11:28:51.664Z,61.50
2018-01-15T11:29:52.922Z,62.20
2018-01-15T11:30:54.943Z,62.60
2018-01-15T11:31:56.185Z,63.00
2018-01-15T11:32:57.780Z,63.10
2018-01-15T11:33:59.020Z,63.30
2018-01-15T11:35:00.272Z,63.70
2018-01-15T11:36:02.291Z,64.10
2018-01-15T11:37:03.553Z,64.10
2018-01-15T11:38:05.192Z,64.60
2018-01-15T11:39:07.184Z,64.90
2018-01-15T11:40:08.432Z,64.90
2018-01-15T11:41:09.696Z,64.80
2018-01-15T11:42:10.928Z,64.80
2018-01-15T11:43:12.178Z,64.80
2018-01-15T11:44:13.408Z,65.10
2018-01-15T11:45:14.652Z,65.10
2018-01-15T11:46:15.912Z,65.00
2018-01-15T11:47:17.176Z,65.10
2018-01-15T11:48:18.462Z,65.10
2018-01-15T11:49:20.474Z,65.60
2018-01-15T11:50:21.729Z,65.50
2018-01-15T11:51:22.994Z,65.60
2018-01-15T11:52:24.964Z,65.60
2018-01-15T11:53:26.213Z,65.60
2018-01-15T11:54:27.456Z,65.90
2018-01-15T11:55:28.707Z,65.80
2018-01-15T11:56:29.972Z,65.80
2018-01-15T11:57:31.208Z,65.80
2018-01-15T11:58:32.474Z,66.10
2018-01-15T11:59:33.752Z,66.10
2018-01-15T12:00:34.996Z,65.90
2018-01-15T12:01:36.248Z,66.00
2018-01-15T12:02:37.496Z,66.10
2018-01-15T12:03:39.510Z,66.20
2018-01-15T12:04:40.758Z,66.10
2018-01-15T12:05:41.993Z,66.30
2018-01-15T12:06:43.252Z,66.40
2018-01-15T12:07:45.256Z,66.60
2018-01-15T12:08:46.768Z,66.60
2018-01-15T12:09:48.019Z,66.80
2018-01-15T12:10:49.272Z,66.70
2018-01-15T12:11:50.524Z,66.60
2018-01-15T12:12:51.776Z,66.20
2018-01-15T12:13:53.035Z,66.10
2018-01-15T12:14:55.064Z,66.40
2018-01-15T12:15:56.300Z,66.30
2018-01-15T12:16:57.540Z,66.70
2018-01-15T12:17:58.780Z,66.20
2018-01-15T12:19:00.776Z,66.00
2018-01-15T12:20:02.086Z,65.90
2018-01-15T12:21:04.137Z,66.00
2018-01-15T12:22:05.386Z,65.90
2018-01-15T12:23:06.640Z,66.00
2018-01-15T12:24:08.204Z,65.70
2018-01-15T12:25:09.448Z,65.30
2018-01-15T12:26:10.710Z,65.70
2018-01-15T12:27:12.705Z,66.10
2018-01-15T12:28:13.961Z,66.00
2018-01-15T12:29:15.258Z,65.10
2018-01-15T12:30:16.506Z,63.90
2018-01-15T12:31:17.770Z,64.20
2018-01-15T12:32:19.020Z,64.00
2018-01-15T12:33:20.272Z,64.70
2018-01-15T12:34:22.272Z,64.50
2018-01-15T12:35:23.528Z,64.50
2018-01-15T12:36:24.778Z,64.20
2018-01-15T12:37:26.025Z,64.00
2018-01-15T12:38:27.277Z,63.10
2018-01-15T12:39:29.295Z,62.80
2018-01-15T12:40:30.526Z,62.80
2018-01-15T12:41:31.824Z,63.00
2018-01-15T12:42:33.074Z,61.90
2018-01-15T12:43:34.336Z,64.40
2018-01-15T12:44:35.614Z,62.30
2018-01-15T12:45:36.897Z,61.60
2018-01-15T12:46:38.177Z,62.50
2018-01-15T12:47:40.152Z,62.80
2018-01-15T12:48:41.422Z,62.80
2018-01-15T12:49:42.684Z,61.80
2018-01-15T12:50:44.682Z,61.50
2018-01-15T12:51:45.916Z,61.50
2018-01-15T12:52:47.161Z,62.20
2018-01-15T12:53:48.413Z,62.40
2018-01-15T12:54:49.684Z,61.70
2018-01-15T12:55:50.924Z,61.80
2018-01-15T12:58:07.548Z,61.60
2018-01-15T12:59:08.808Z,61.60
2018-01-15T13:00:10.368Z,61.60
2018-01-15T13:01:11.608Z,62.00
2018-01-15T13:02:12.855Z,61.90
2018-01-15T13:03:14.120Z,62.20
2018-01-15T13:04:16.105Z,62.40
2018-01-15T13:05:17.392Z,62.40
2018-01-15T13:06:18.692Z,61.80
2018-01-15T13:07:32.288Z,62.30
2018-01-15T13:08:48.452Z,62.20
2018-01-15T13:09:50.434Z,62.90
2018-01-15T13:10:51.965Z,62.80
2018-01-15T13:11:53.212Z,63.00
2018-01-15T13:12:54.457Z,63.10